Time;durP1;ratioP1;P1;durP2;ratioP2;P2;SDS_P1;SDS_P2;PMS_P1;PMS_P2;Temp;Humidity;BMP_temperature;BMP_pressure;BME280_temperature;BME280_humidity;BME280_pressure;Samples;Min_cycle;Max_cycle;Signal;HPM_P1;HPM_P2
2023/01/16 00:01:27;;;;;;;3.83;0.80;;;;;;;0.88;92.23;96094.63;4956316;28;20039;-63
2023/01/16 00:03:53;;;;;;;3.28;1.10;;;;;;;0.89;91.91;96087.47;4961203;28;20055;-63
2023/01/16 00:06:20;;;;;;;4.10;1.25;;;;;;;0.91;91.85;96082.72;4958064;28;20047;-63
2023/01/16 00:08:48;;;;;;;3.65;1.05;;;;;;;0.90;92.34;96079.25;4960647;28;20054;-63
2023/01/16 00:11:15;;;;;;;2.65;1.08;;;;;;;0.90;91.89;96078.44;4955897;28;20082;-63
2023/01/16 00:13:41;;;;;;;2.42;0.85;;;;;;;0.98;91.53;96070.13;4960608;28;20054;-63
2023/01/16 00:16:08;;;;;;;2.33;0.75;;;;;;;0.98;91.78;96074.63;4957736;28;20477;-63
2023/01/16 00:18:34;;;;;;;2.25;0.90;;;;;;;1.04;91.31;96073.75;4958631;28;20042;-63
2023/01/16 00:21:01;;;;;;;4.00;0.80;;;;;;;1.08;90.97;96064.28;4957666;28;20039;-63
2023/01/16 00:23:28;;;;;;;3.22;1.35;;;;;;;1.13;91.49;96053.75;4955652;28;20070;-63
2023/01/16 00:25:54;;;;;;;3.33;1.23;;;;;;;1.17;90.42;96049.59;4960889;28;20043;-63
2023/01/16 00:28:21;;;;;;;4.95;0.90;;;;;;;1.17;90.11;96049.59;4961311;28;20047;-63
2023/01/16 00:30:48;;;;;;;2.58;0.90;;;;;;;1.18;90.34;96047.72;4956063;28;20047;-63
2023/01/16 00:33:14;;;;;;;2.92;0.80;;;;;;;1.15;91.40;96041.00;4956545;28;20046;-63
2023/01/16 00:35:40;;;;;;;3.58;0.75;;;;;;;1.11;90.71;96031.81;4958741;28;20118;-63
2023/01/16 00:38:07;;;;;;;3.83;0.80;;;;;;;1.09;91.33;96020.59;4962449;28;20536;-63
2023/01/16 00:40:33;;;;;;;3.05;0.95;;;;;;;1.02;90.98;96020.66;4959741;28;20130;-63
2023/01/16 00:43:00;;;;;;;4.97;0.98;;;;;;;0.96;91.11;96020.75;4962211;28;20063;-63
2023/01/16 00:45:27;;;;;;;3.23;0.80;;;;;;;0.97;91.32;96015.19;4958572;28;20843;-63
2023/01/16 00:47:53;;;;;;;4.28;1.02;;;;;;;0.93;91.53;96005.19;4959089;28;20070;-63
2023/01/16 00:50:20;;;;;;;2.75;1.20;;;;;;;0.80;91.79;95996.31;4962717;28;20046;-63
2023/01/16 00:52:46;;;;;;;1.80;0.80;;;;;;;0.76;92.74;95997.81;4959672;28;20105;-63
2023/01/16 00:55:12;;;;;;;3.00;0.63;;;;;;;0.71;92.52;95997.66;4958683;28;20272;-63
2023/01/16 00:57:39;;;;;;;4.40;1.00;;;;;;;0.71;92.90;95992.34;4957216;28;20067;-63
2023/01/16 01:00:23;;;;;;;4.65;1.02;;;;;;;0.54;92.94;95979.63;4957261;28;20070;-63
2023/01/16 01:02:49;;;;;;;2.67;0.60;;;;;;;0.51;93.26;95980.88;4956836;28;20047;-63
2023/01/16 01:05:16;;;;;;;1.25;0.52;;;;;;;0.54;92.94;95979.63;4962029;28;20053;-63
2023/01/16 01:07:43;;;;;;;0.70;0.50;;;;;;;0.49;94.17;95976.81;4959918;28;20666;-63
2023/01/16 01:10:10;;;;;;;3.10;0.70;;;;;;;0.54;93.49;95968.13;4955448;28;20047;-63
2023/01/16 01:12:36;;;;;;;4.07;0.70;;;;;;;0.37;93.94;95961.56;4959098;28;20049;-63
2023/01/16 01:15:04;;;;;;;4.43;0.70;;;;;;;0.34;94.25;95955.88;4958442;28;20078;-63
2023/01/16 01:17:30;;;;;;;5.70;0.90;;;;;;;0.31;94.17;95950.97;4959626;28;20039;-63
2023/01/16 01:19:57;;;;;;;2.47;0.75;;;;;;;0.40;93.68;95954.19;4955810;28;20085;-63
2023/01/16 01:22:23;;;;;;;2.72;0.68;;;;;;;0.41;94.41;95945.97;4956275;28;20094;-63
2023/01/16 01:24:50;;;;;;;3.47;0.75;;;;;;;0.39;93.91;95942.69;4958341;28;20122;-63
2023/01/16 01:27:16;;;;;;;5.65;0.70;;;;;;;0.35;94.05;95937.03;4960957;28;20047;-63
2023/01/16 01:29:43;;;;;;;1.15;0.40;;;;;;;0.39;93.52;95932.06;4959731;28;20058;-63
2023/01/16 01:32:09;;;;;;;2.17;0.77;;;;;;;0.41;93.24;95935.31;4962313;28;20061;-63
2023/01/16 01:34:36;;;;;;;4.65;0.70;;;;;;;0.43;94.56;95932.41;4961379;28;20054;-64
2023/01/16 01:37:07;;;;;;;2.97;0.77;;;;;;;0.31;93.64;95930.50;4961411;28;20513;-64
2023/01/16 01:39:34;;;;;;;2.92;0.82;;;;;;;0.28;93.10;95930.94;4964503;28;20046;-63
2023/01/16 01:44:55;;;;;;;1.48;0.60;;;;;;;0.24;94.62;95916.44;4962638;28;20138;-63
2023/01/16 01:47:35;;;;;;;1.92;0.50;;;;;;;0.20;94.96;95909.94;4961820;28;20549;-63
2023/01/16 01:50:10;;;;;;;1.25;0.73;;;;;;;0.26;93.94;95909.06;4964995;28;20125;-63
2023/01/16 01:52:37;;;;;;;1.85;0.98;;;;;;;0.29;93.52;95897.94;4959910;28;20089;-63
2023/01/16 01:55:06;;;;;;;3.50;0.90;;;;;;;0.24;93.97;95901.31;4959592;28;20480;-63
2023/01/16 01:57:40;;;;;;;3.53;0.68;;;;;;;0.24;93.75;95888.00;4961471;28;20074;-63
2023/01/16 02:00:11;;;;;;;2.13;0.50;;;;;;;0.27;94.31;95876.09;4964626;28;20045;-63
2023/01/16 02:02:44;;;;;;;1.58;0.70;;;;;;;0.27;93.88;95873.41;4966128;28;20494;-63
2023/01/16 02:05:15;;;;;;;4.63;0.63;;;;;;;0.28;93.67;95863.56;4962809;28;20063;-63
2023/01/16 02:07:42;;;;;;;2.35;0.50;;;;;;;0.27;94.04;95859.28;4955346;28;20043;-63
2023/01/16 02:10:16;;;;;;;5.72;0.73;;;;;;;0.28;93.43;95858.25;4957191;28;20077;-63
2023/01/16 02:12:42;;;;;;;3.63;0.70;;;;;;;0.31;93.42;95839.97;4960089;28;20034;-63
2023/01/16 02:15:09;;;;;;;4.30;0.80;;;;;;;0.31;92.91;95841.81;4964069;28;20533;-63
2023/01/16 02:20:28;;;;;;;3.45;0.55;;;;;;;0.34;93.31;95815.56;4961995;28;20043;-63
2023/01/16 02:23:32;;;;;;;1.38;0.50;;;;;;;0.33;93.16;95810.47;4958405;28;20444;-63
2023/01/16 02:26:21;;;;;;;2.03;0.68;;;;;;;0.38;92.82;95810.59;4961808;28;20043;-63
2023/01/16 02:29:15;;;;;;;1.75;0.57;;;;;;;0.43;92.37;95796.59;4961006;28;20577;-63
2023/01/16 02:31:54;;;;;;;1.95;0.65;;;;;;;0.54;92.37;95784.34;4962447;28;20469;-63
2023/01/16 02:34:56;;;;;;;1.13;0.55;;;;;;;0.57;91.50;95771.41;4956278;28;20122;-63
2023/01/16 02:37:37;;;;;;;2.20;0.70;;;;;;;0.64;91.13;95768.66;4960499;28;20078;-63
2023/01/16 02:40:20;;;;;;;7.13;0.83;;;;;;;0.69;90.92;95763.44;4957712;28;20048;-63
2023/01/16 02:43:24;;;;;;;3.80;0.75;;;;;;;0.72;90.57;95756.84;4958140;28;20061;-63
2023/01/16 02:45:56;;;;;;;1.85;0.80;;;;;;;0.73;90.63;95753.13;4954544;28;20418;-63
2023/01/16 02:48:37;;;;;;;1.95;0.93;;;;;;;0.70;91.75;95750.94;4959613;28;20053;-63
2023/01/16 02:51:14;;;;;;;3.42;0.75;;;;;;;0.67;91.05;95740.75;4957812;28;20047;-63
2023/01/16 02:53:57;;;;;;;2.08;0.38;;;;;;;0.64;92.20;95732.19;4960957;28;20537;-63
2023/01/16 02:56:41;;;;;;;2.25;0.77;;;;;;;0.72;90.89;95732.88;4957395;28;20493;-63
2023/01/16 02:59:11;;;;;;;3.70;0.50;;;;;;;0.69;91.49;95728.00;4960975;28;20047;-63
2023/01/16 03:01:40;;;;;;;3.90;0.70;;;;;;;0.80;90.26;95729.88;4957698;28;20046;-63
2023/01/16 03:04:41;;;;;;;2.88;0.70;;;;;;;0.79;90.45;95712.25;4959902;28;20042;-63
2023/01/16 03:07:25;;;;;;;3.30;0.65;;;;;;;0.80;90.40;95703.22;4962434;28;20133;-63
2023/01/16 03:10:10;;;;;;;4.50;0.85;;;;;;;0.80;90.00;95689.91;4958743;28;20121;-63
2023/01/16 03:13:01;;;;;;;1.55;0.70;;;;;;;0.84;90.25;95684.91;4961458;28;20042;-63
2023/01/16 03:15:51;;;;;;;1.95;0.70;;;;;;;0.94;89.45;95679.00;4953338;28;20561;-63
2023/01/16 03:18:42;;;;;;;1.65;0.45;;;;;;;1.03;89.21;95674.94;4956623;28;20109;-63
2023/01/16 03:21:17;;;;;;;2.90;0.60;;;;;;;1.08;88.23;95661.75;4955623;28;20043;-62
2023/01/16 03:24:01;;;;;;;2.35;0.80;;;;;;;1.09;88.16;95650.03;4959167;28;20415;-63
2023/01/16 03:26:47;;;;;;;3.08;0.60;;;;;;;1.21;87.27;95646.53;4956182;28;20720;-63
2023/01/16 03:29:47;;;;;;;1.13;0.60;;;;;;;1.25;87.21;95637.03;4961298;28;20117;-63
2023/01/16 03:32:34;;;;;;;5.28;0.70;;;;;;;1.25;86.85;95635.16;4962139;28;20047;-63
2023/01/16 03:35:02;;;;;;;4.28;0.50;;;;;;;1.25;87.43;95631.69;4960508;28;20058;-63
2023/01/16 03:37:40;;;;;;;1.63;0.50;;;;;;;1.34;86.53;95616.13;4958459;28;20048;-63
2023/01/16 03:40:11;;;;;;;4.68;0.93;;;;;;;1.40;86.53;95610.66;4957463;28;20697;-63
2023/01/16 03:42:52;;;;;;;4.00;0.70;;;;;;;1.46;86.25;95598.25;4961240;28;20042;-63
2023/01/16 03:45:25;;;;;;;0.80;0.45;;;;;;;1.44;85.45;95597.69;4961325;28;20456;-63
2023/01/16 03:48:03;;;;;;;1.70;0.73;;;;;;;1.39;85.88;95586.88;4954250;28;20070;-63
2023/01/16 03:50:31;;;;;;;2.17;0.60;;;;;;;1.31;86.47;95582.75;4957923;28;20039;-63
2023/01/16 03:53:05;;;;;;;4.72;0.57;;;;;;;1.33;86.97;95583.34;4958703;28;20549;-63
2023/01/16 03:55:50;;;;;;;2.97;0.63;;;;;;;1.35;86.68;95565.22;4955511;28;20101;-63
2023/01/16 03:58:27;;;;;;;1.15;0.40;;;;;;;1.38;86.27;95567.44;4954913;28;20043;-63
2023/01/16 04:01:04;;;;;;;1.95;0.60;;;;;;;1.46;85.43;95562.75;4957878;28;20411;-63
2023/01/16 04:03:44;;;;;;;3.38;0.65;;;;;;;1.46;85.51;95544.06;4955436;28;20050;-63
2023/01/16 04:06:15;;;;;;;4.22;0.90;;;;;;;1.46;85.86;95536.88;4962191;28;20039;-63
2023/01/16 04:08:44;;;;;;;1.88;0.55;;;;;;;1.49;85.80;95530.25;4959808;28;20053;-63
2023/01/16 04:11:14;;;;;;;0.60;0.40;;;;;;;1.47;85.43;95525.16;4957757;28;20418;-63
2023/01/16 04:13:44;;;;;;;0.85;0.35;;;;;;;1.51;85.22;95515.63;4961200;28;20126;-63
2023/01/16 04:16:14;;;;;;;2.90;0.60;;;;;;;1.56;84.85;95509.59;4958295;28;20050;-63
2023/01/16 04:18:41;;;;;;;1.05;0.57;;;;;;;1.62;84.47;95505.16;4959170;28;20638;-63
2023/01/16 04:21:08;;;;;;;1.77;0.70;;;;;;;1.63;84.50;95502.25;4957813;28;20054;-63
2023/01/16 04:23:35;;;;;;;2.70;0.43;;;;;;;1.55;84.30;95489.31;4958111;28;20046;-63
2023/01/16 04:26:02;;;;;;;2.58;0.60;;;;;;;1.49;83.87;95474.25;4952446;28;20109;-63
2023/01/16 04:28:29;;;;;;;1.05;0.50;;;;;;;1.48;84.37;95476.13;4962224;28;20058;-63
2023/01/16 04:30:55;;;;;;;1.38;0.70;;;;;;;1.41;84.44;95465.59;4958352;28;20047;-64
2023/01/16 04:33:22;;;;;;;2.47;0.73;;;;;;;1.39;84.56;95461.53;4964728;28;20043;-63
2023/01/16 04:35:49;;;;;;;0.85;0.47;;;;;;;1.33;84.58;95450.00;4961460;28;20074;-63
2023/01/16 04:38:15;;;;;;;2.50;0.60;;;;;;;1.40;83.97;95449.84;4959239;28;20085;-63
2023/01/16 04:40:42;;;;;;;1.98;0.77;;;;;;;1.43;84.05;95438.69;4954387;28;20066;-63
2023/01/16 04:43:08;;;;;;;4.55;0.70;;;;;;;1.41;83.77;95425.56;4955105;28;20458;-63
2023/01/16 04:45:34;;;;;;;1.67;0.75;;;;;;;1.47;83.12;95413.13;4954008;28;20070;-63
2023/01/16 04:48:01;;;;;;;1.27;0.50;;;;;;;1.34;83.58;95403.63;4961127;28;20137;-63
2023/01/16 04:50:27;;;;;;;1.73;0.32;;;;;;;1.35;83.43;95394.56;4953217;28;20565;-63
2023/01/16 04:52:54;;;;;;;1.20;0.60;;;;;;;1.31;83.73;95380.09;4955353;28;20042;-63
2023/01/16 04:55:20;;;;;;;1.75;0.75;;;;;;;1.24;84.21;95384.75;4957716;28;20118;-63
2023/01/16 04:57:47;;;;;;;2.53;0.57;;;;;;;1.17;83.91;95376.94;4951500;28;20091;-63
2023/01/16 05:00:14;;;;;;;2.90;0.70;;;;;;;1.13;84.99;95368.63;4951641;28;20075;-63
2023/01/16 05:02:41;;;;;;;4.90;0.70;;;;;;;1.13;84.72;95359.78;4951725;28;20502;-63
2023/01/16 05:05:08;;;;;;;1.85;0.50;;;;;;;1.14;84.74;95351.56;4965322;28;20050;-63
2023/01/16 05:07:34;;;;;;;4.95;0.70;;;;;;;1.12;84.76;95343.00;4963751;28;20047;-63
2023/01/16 05:10:01;;;;;;;4.40;0.77;;;;;;;1.13;84.54;95331.28;4957845;28;20054;-63
2023/01/16 05:12:27;;;;;;;1.20;0.60;;;;;;;1.10;85.45;95336.31;4965804;28;20398;-63
2023/01/16 05:14:54;;;;;;;6.45;3.45;;;;;;;1.06;85.18;95321.84;4960647;28;20117;-63
2023/01/16 05:17:24;;;;;;;1.38;0.60;;;;;;;1.09;84.60;95316.03;4959019;28;20050;-63
2023/01/16 05:19:51;;;;;;;2.50;0.57;;;;;;;0.98;85.02;95310.53;4958738;28;20043;-63
2023/01/16 05:22:17;;;;;;;3.72;0.75;;;;;;;0.96;85.47;95301.97;4957649;28;20115;-63
2023/01/16 05:24:44;;;;;;;4.93;1.95;;;;;;;0.94;85.37;95303.25;4961618;28;20055;-63
2023/01/16 05:27:10;;;;;;;2.28;0.80;;;;;;;1.00;84.78;95299.63;4965132;28;20047;-63
2023/01/16 05:29:37;;;;;;;4.35;0.70;;;;;;;0.96;84.95;95291.31;4960416;28;20043;-63
2023/01/16 05:32:04;;;;;;;0.95;0.57;;;;;;;0.99;85.11;95280.16;4961866;28;20047;-63
2023/01/16 05:34:30;;;;;;;1.63;0.57;;;;;;;1.07;84.72;95268.28;4958887;28;20127;-63
2023/01/16 05:36:57;;;;;;;3.28;0.95;;;;;;;1.00;84.37;95251.66;4953827;28;20055;-63
2023/01/16 05:39:23;;;;;;;2.88;0.65;;;;;;;1.04;84.72;95250.13;4958655;28;20650;-63
2023/01/16 05:41:50;;;;;;;4.47;0.77;;;;;;;1.02;84.46;95242.38;4959427;28;20030;-63
2023/01/16 05:44:16;;;;;;;3.25;0.73;;;;;;;0.97;85.10;95230.81;4954590;28;20043;-63
2023/01/16 05:46:43;;;;;;;1.85;0.60;;;;;;;0.98;84.32;95222.59;4961794;28;20039;-62
2023/01/16 05:49:09;;;;;;;1.00;0.50;;;;;;;0.98;85.09;95214.59;4965866;28;20058;-63
2023/01/16 05:51:36;;;;;;;2.60;0.63;;;;;;;0.92;84.40;95207.56;4961990;28;20047;-63
2023/01/16 05:54:02;;;;;;;3.20;0.70;;;;;;;0.88;84.65;95199.25;4962237;28;20054;-63
2023/01/16 05:56:29;;;;;;;8.07;0.80;;;;;;;0.92;84.88;95190.78;4955960;28;20079;-63
2023/01/16 05:58:57;;;;;;;1.85;0.85;;;;;;;0.93;84.62;95174.56;4958610;28;20062;-63
2023/01/16 06:01:23;;;;;;;2.28;0.80;;;;;;;0.95;84.59;95168.97;4954305;28;20538;-63
2023/01/16 06:03:49;;;;;;;1.75;0.50;;;;;;;0.99;85.40;95162.13;4954191;28;20039;-62
2023/01/16 06:06:16;;;;;;;3.58;0.50;;;;;;;1.04;84.85;95159.50;4961013;28;20125;-62
2023/01/16 06:08:45;;;;;;;1.15;0.50;;;;;;;1.05;83.98;95147.78;4955800;28;20665;-60
2023/01/16 06:11:11;;;;;;;1.10;0.52;;;;;;;1.06;83.34;95135.28;4958736;28;20171;-60
2023/01/16 06:13:38;;;;;;;3.40;0.63;;;;;;;1.19;82.20;95126.91;4958694;28;20078;-62
2023/01/16 06:16:04;;;;;;;1.30;0.57;;;;;;;1.10;82.78;95118.53;4961374;28;20073;-62
2023/01/16 06:18:31;;;;;;;1.50;0.77;;;;;;;1.17;82.24;95113.00;4958204;28;20564;-62
2023/01/16 06:20:57;;;;;;;4.18;0.77;;;;;;;1.13;82.48;95099.38;4950448;28;20051;-60
2023/01/16 06:23:24;;;;;;;1.13;0.50;;;;;;;1.11;82.82;95098.03;4962315;28;20038;-62
2023/01/16 06:25:50;;;;;;;0.75;0.50;;;;;;;1.13;82.26;95086.06;4962054;28;20035;-62
2023/01/16 06:28:17;;;;;;;2.30;0.95;;;;;;;1.14;83.94;95078.88;4965459;28;20090;-62
2023/01/16 06:30:44;;;;;;;1.75;0.50;;;;;;;1.15;83.02;95070.63;4962247;28;20456;-61
2023/01/16 06:33:10;;;;;;;1.00;0.50;;;;;;;1.17;82.69;95073.84;4960688;28;20051;-62
2023/01/16 06:35:37;;;;;;;0.88;0.30;;;;;;;1.19;82.04;95067.47;4958379;28;20050;-62
2023/01/16 06:38:03;;;;;;;4.35;0.70;;;;;;;1.15;82.40;95053.84;4956459;28;20108;-62
2023/01/16 06:40:30;;;;;;;3.78;0.52;;;;;;;1.15;81.92;95043.16;4954778;28;20208;-62
2023/01/16 06:42:56;;;;;;;2.58;0.77;;;;;;;1.20;81.98;95047.72;4960395;28;20039;-62
2023/01/16 06:45:24;;;;;;;1.05;0.50;;;;;;;1.26;81.63;95034.22;4953257;28;20040;-62
2023/01/16 06:47:52;;;;;;;1.90;0.80;;;;;;;1.29;80.79;95033.72;4955288;28;20184;-62
2023/01/16 06:50:19;;;;;;;2.30;0.65;;;;;;;1.28;81.03;95028.63;4957983;28;20053;-62
2023/01/16 06:52:46;;;;;;;3.17;0.70;;;;;;;1.32;80.01;95023.63;4957932;28;20043;-61
2023/01/16 06:55:13;;;;;;;2.38;0.73;;;;;;;1.30;80.44;95022.00;4953964;28;20054;-62
2023/01/16 06:57:43;;;;;;;1.80;0.63;;;;;;;1.32;80.54;95020.94;4958450;28;20074;-61
2023/01/16 07:00:10;;;;;;;0.73;0.50;;;;;;;1.32;79.81;95020.94;4957570;28;20047;-62
2023/01/16 07:02:39;;;;;;;2.67;0.70;;;;;;;1.34;79.35;95019.66;4956612;28;20042;-61
2023/01/16 07:05:09;;;;;;;3.40;0.98;;;;;;;1.35;80.06;95004.44;4960332;28;20043;-62
2023/01/16 07:07:36;;;;;;;2.22;0.65;;;;;;;1.31;80.01;95001.47;4956392;28;20035;-61
2023/01/16 07:10:03;;;;;;;0.70;0.50;;;;;;;1.26;80.39;94999.56;4962362;28;20126;-62
2023/01/16 07:12:30;;;;;;;2.38;1.02;;;;;;;1.27;80.38;95000.38;4958206;28;20727;-61
2023/01/16 07:23:20;;;;;;;2.28;0.73;;;;;;;1.34;80.15;94979.66;4962175;28;20473;-62
2023/01/16 07:25:50;;;;;;;3.55;1.05;;;;;;;1.41;79.66;94974.91;4955735;28;20536;-63
2023/01/16 07:28:17;;;;;;;2.42;0.70;;;;;;;1.38;79.52;94980.75;4957312;28;20051;-63
2023/01/16 07:30:45;;;;;;;1.83;0.70;;;;;;;1.33;80.19;94972.72;4976135;28;20636;-62
2023/01/16 07:33:11;;;;;;;2.17;0.85;;;;;;;1.25;80.98;94971.28;4958485;28;20051;-63
2023/01/16 07:35:38;;;;;;;2.70;1.00;;;;;;;1.21;80.97;94958.72;4960735;28;20433;-62
2023/01/16 07:38:04;;;;;;;1.73;0.90;;;;;;;1.29;80.70;94955.63;4956850;28;20055;-63
2023/01/16 07:40:31;;;;;;;3.40;1.35;;;;;;;1.29;80.26;94952.94;4960071;28;20042;-63
2023/01/16 07:42:57;;;;;;;2.35;0.90;;;;;;;1.33;79.88;94947.91;4952777;28;20051;-63
2023/01/16 07:45:24;;;;;;;2.38;0.77;;;;;;;1.37;80.15;94941.00;4961370;28;20082;-63
2023/01/16 07:47:50;;;;;;;2.72;1.00;;;;;;;1.42;79.64;94933.84;4956770;28;20074;-63
2023/01/16 07:50:17;;;;;;;5.18;1.15;;;;;;;1.44;79.31;94922.94;4961350;28;20047;-63
2023/01/16 07:52:44;;;;;;;1.73;0.70;;;;;;;1.46;78.63;94917.34;4958910;28;20105;-62
2023/01/16 07:55:10;;;;;;;2.75;0.98;;;;;;;1.52;78.87;94916.31;4961860;28;20082;-60
2023/01/16 07:57:37;;;;;;;11.25;1.48;;;;;;;1.43;79.78;94903.47;4960114;28;21334;-63
2023/01/16 08:00:06;;;;;;;1.52;0.70;;;;;;;1.42;79.00;94893.88;4961021;28;20414;-63
2023/01/16 08:02:38;;;;;;;3.88;1.13;;;;;;;1.47;78.56;94890.41;4960364;28;20162;-63
2023/01/16 08:05:05;;;;;;;4.75;1.20;;;;;;;1.49;78.26;94887.50;4961274;28;20070;-62
2023/01/16 08:07:32;;;;;;;4.85;0.90;;;;;;;1.47;79.99;94881.63;4960334;28;20039;-63
2023/01/16 08:09:58;;;;;;;1.35;0.65;;;;;;;1.57;78.22;94884.34;4958096;28;20042;-62
2023/01/16 08:12:25;;;;;;;1.38;0.68;;;;;;;1.63;77.84;94886.00;4953728;28;20661;-63
2023/01/16 08:14:51;;;;;;;4.35;1.70;;;;;;;1.64;77.83;94870.78;4961102;28;20778;-62
2023/01/16 08:17:18;;;;;;;1.77;0.80;;;;;;;1.66;77.41;94871.34;4962114;28;20167;-63
2023/01/16 08:19:44;;;;;;;2.17;0.70;;;;;;;1.63;77.67;94867.34;4957507;28;20046;-63
2023/01/16 08:22:11;;;;;;;1.48;0.70;;;;;;;1.63;78.13;94862.00;4961846;28;20163;-63
2023/01/16 08:24:37;;;;;;;3.60;0.90;;;;;;;1.65;77.79;94856.38;4961535;28;20047;-62
2023/01/16 08:27:04;;;;;;;1.80;0.90;;;;;;;1.62;77.56;94855.03;4961379;28;20051;-63
2023/01/16 08:29:30;;;;;;;4.80;1.10;;;;;;;1.61;78.18;94853.44;4957989;28;20043;-63
2023/01/16 08:31:57;;;;;;;1.48;1.02;;;;;;;1.61;78.30;94858.78;4960373;28;20133;-63
2023/01/16 08:34:23;;;;;;;2.20;1.00;;;;;;;1.58;78.33;94853.16;4955678;28;20065;-62
2023/01/16 08:36:50;;;;;;;1.77;0.90;;;;;;;1.56;77.92;94861.41;4957426;28;20043;-63
2023/01/16 08:39:16;;;;;;;2.45;0.88;;;;;;;1.57;78.67;94855.00;4950753;28;20039;-63
2023/01/16 08:53:01;;;;;;;2.15;0.88;;;;;;;1.70;77.46;94845.78;4967094;28;20086;-62
2023/01/16 08:55:28;;;;;;;1.65;0.90;;;;;;;1.63;78.02;94842.53;4963294;28;20502;-63
2023/01/16 08:57:58;;;;;;;2.10;1.15;;;;;;;1.71;77.83;94847.38;4969287;28;20053;-63
2023/01/16 09:00:26;;;;;;;2.88;1.00;;;;;;;1.76;77.87;94849.25;4965228;28;20057;-63
2023/01/16 09:02:54;;;;;;;3.78;1.00;;;;;;;1.76;78.51;94858.06;4967185;28;20043;-63
2023/01/16 09:05:22;;;;;;;3.47;1.20;;;;;;;1.83;77.31;94881.06;4963649;28;20054;-63
2023/01/16 09:07:48;;;;;;;4.57;1.10;;;;;;;1.80;77.90;94871.69;4961277;28;20145;-63
2023/01/16 09:10:15;;;;;;;3.17;0.80;;;;;;;1.66;77.76;94853.47;4959640;28;20046;-63
2023/01/16 09:15:27;;;;;;;3.67;1.10;;;;;;;1.67;77.48;94838.28;4960138;28;20050;-63
2023/01/16 09:17:54;;;;;;;1.65;0.80;;;;;;;1.72;77.85;94842.81;4966398;28;20047;-63
2023/01/16 09:20:20;;;;;;;2.65;1.00;;;;;;;1.73;77.78;94831.13;4960257;28;20069;-63
2023/01/16 09:22:47;;;;;;;2.33;1.00;;;;;;;1.85;77.87;94834.38;4966072;28;20453;-62
2023/01/16 09:25:13;;;;;;;1.30;0.88;;;;;;;1.88;77.03;94820.50;4965020;28;20141;-62
2023/01/16 09:27:40;;;;;;;1.98;0.90;;;;;;;1.92;76.06;94815.47;4961699;28;20050;-63
2023/01/16 09:30:07;;;;;;;1.17;0.60;;;;;;;1.93;76.54;94812.53;4964310;28;20093;-63
2023/01/16 09:32:34;;;;;;;4.45;1.00;;;;;;;2.11;75.51;94805.13;4962361;28;22378;-62
2023/01/16 09:35:00;;;;;;;2.03;0.80;;;;;;;1.95;75.25;94798.91;4964972;28;20145;-63
2023/01/16 09:37:27;;;;;;;2.05;0.80;;;;;;;2.13;75.76;94794.19;4959545;28;20544;-62
2023/01/16 09:39:53;;;;;;;2.13;0.77;;;;;;;2.15;74.78;94784.84;4965064;28;20074;-63
2023/01/16 09:45:25;;;;;;;1.53;0.77;;;;;;;2.33;74.90;94782.78;4968274;28;20059;-63
2023/01/16 09:47:55;;;;;;;1.85;0.98;;;;;;;2.38;74.47;94784.63;4964445;28;20122;-63
2023/01/16 09:50:31;;;;;;;1.48;0.75;;;;;;;2.36;74.77;94778.78;4961590;28;20128;-63
2023/01/16 09:58:35;;;;;;;2.40;0.70;;;;;;;2.42;73.73;94759.81;4955210;28;20055;-63
2023/01/16 10:01:07;;;;;;;1.40;0.70;;;;;;;2.46;74.42;94768.91;4950836;28;20118;-63
2023/01/16 10:03:41;;;;;;;1.00;0.60;;;;;;;2.60;72.26;94744.34;4954288;28;20736;-63
2023/01/16 10:06:26;;;;;;;2.47;0.60;;;;;;;2.67;73.11;94736.88;4956456;28;20520;-63
2023/01/16 10:09:08;;;;;;;1.45;0.70;;;;;;;2.71;72.48;94729.94;4956681;28;20129;-63
2023/01/16 10:11:55;;;;;;;1.45;0.55;;;;;;;2.80;70.82;94726.72;4961900;28;20081;-62
2023/01/16 10:14:51;;;;;;;0.65;0.45;;;;;;;2.88;70.53;94722.69;4960702;28;20126;-62
2023/01/16 10:17:25;;;;;;;1.40;0.68;;;;;;;2.96;70.33;94714.16;4959138;28;20462;-62
2023/01/16 10:20:04;;;;;;;1.48;0.52;;;;;;;2.99;70.38;94709.06;4959363;28;20039;-63
2023/01/16 10:22:47;;;;;;;0.38;0.30;;;;;;;3.05;69.43;94711.72;4960790;28;20388;-62
2023/01/16 10:25:40;;;;;;;1.70;0.60;;;;;;;3.16;69.47;94715.19;4960565;28;20509;-63
2023/01/16 10:28:06;;;;;;;0.82;0.40;;;;;;;3.24;68.52;94706.59;4963823;28;19926;-63
2023/01/16 10:30:44;;;;;;;0.95;0.40;;;;;;;3.32;67.14;94698.03;4959387;28;20039;-63
2023/01/16 10:33:28;;;;;;;1.67;0.50;;;;;;;3.37;67.94;94702.56;4958482;28;20047;-62
2023/01/16 10:35:58;;;;;;;1.42;0.40;;;;;;;3.44;67.40;94687.03;4956906;28;20050;-63
2023/01/16 10:38:45;;;;;;;0.57;0.50;;;;;;;3.46;66.57;94687.56;4956602;28;20094;-62
2023/01/16 10:50:05;;;;;;;0.90;0.50;;;;;;;3.36;66.30;94666.19;4959580;28;20335;-62
2023/01/16 10:52:32;;;;;;;1.42;0.28;;;;;;;3.42;66.82;94665.09;4963371;28;20047;-62
2023/01/16 10:55:00;;;;;;;4.95;0.70;;;;;;;3.46;66.13;94655.44;4962603;28;20073;-62
2023/01/16 10:57:27;;;;;;;1.20;0.45;;;;;;;3.45;66.88;94647.69;4961029;28;20599;-62
2023/01/16 11:00:02;;;;;;;1.23;0.60;;;;;;;3.56;67.07;94637.75;4962910;28;20055;-63
2023/01/16 11:02:33;;;;;;;3.65;0.55;;;;;;;3.56;66.33;94627.03;4964006;28;20114;-62
2023/01/16 11:05:01;;;;;;;1.60;0.43;;;;;;;3.61;65.38;94633.19;4956377;28;20502;-62
2023/01/16 11:07:29;;;;;;;0.85;0.20;;;;;;;3.69;64.68;94623.75;4954365;28;20043;-62
2023/01/16 11:09:57;;;;;;;0.60;0.43;;;;;;;3.68;65.79;94613.38;4957375;28;20145;-62
2023/01/16 11:18:28;;;;;;;;;;;;;;;3.75;67.73;94595.91;4957105;28;20050;-60
2023/01/16 11:21:29;;;;;;;2.95;1.08;;;;;;;3.66;69.46;94594.09;4961193;28;19953;-62
2023/01/16 11:24:15;;;;;;;4.03;1.90;;;;;;;3.65;69.63;94590.63;4955319;28;20441;-61
2023/01/16 11:26:47;;;;;;;7.88;4.57;;;;;;;3.64;69.98;94581.78;4960443;28;20430;-62
2023/01/16 11:29:18;;;;;;;5.15;1.20;;;;;;;3.67;70.54;94563.56;4959156;28;20510;-61
2023/01/16 11:31:57;;;;;;;1.55;0.82;;;;;;;3.56;71.66;94560.97;4952015;28;20050;-61
2023/01/16 11:34:26;;;;;;;1.45;0.77;;;;;;;3.58;72.69;94560.69;4959945;28;20150;-62
2023/01/16 11:36:58;;;;;;;0.93;0.60;;;;;;;3.57;73.01;94573.25;4952868;28;20057;-62
2023/01/16 11:39:28;;;;;;;1.30;0.70;;;;;;;3.58;73.60;94540.06;4955314;28;20055;-62
2023/01/16 11:41:57;;;;;;;2.08;1.30;;;;;;;3.56;73.68;94534.22;4953760;28;20046;-59
2023/01/16 11:47:20;;;;;;;1.52;0.77;;;;;;;3.86;73.66;94531.59;4962292;28;20375;-62
2023/01/16 11:49:50;;;;;;;2.28;0.60;;;;;;;3.82;73.84;94525.19;4963493;28;20518;-62
2023/01/16 11:52:29;;;;;;;3.35;1.00;;;;;;;3.81;74.41;94519.06;4961881;28;20093;-62
2023/01/16 11:54:59;;;;;;;1.52;0.68;;;;;;;3.82;74.46;94509.94;4957165;28;20078;-62
2023/01/16 11:57:50;;;;;;;3.67;0.90;;;;;;;3.73;75.11;94493.69;4975980;28;20070;-62
2023/01/16 12:00:19;;;;;;;1.77;0.50;;;;;;;3.88;75.19;94491.97;4956396;28;20073;-62
2023/01/16 12:02:59;;;;;;;1.25;0.80;;;;;;;3.86;73.83;94483.41;4950726;28;20078;-64
2023/01/16 12:06:00;;;;;;;2.53;0.65;;;;;;;3.94;75.05;94479.34;4950974;28;20046;-62
2023/01/16 12:08:35;;;;;;;0.98;0.60;;;;;;;3.86;74.08;94478.88;4948160;28;20051;-63
2023/01/16 12:11:14;;;;;;;2.28;0.60;;;;;;;3.84;74.10;94464.94;4953884;28;20053;-62
2023/01/16 12:14:21;;;;;;;2.95;1.40;;;;;;;3.94;74.15;94461.41;4957051;28;20109;-62
2023/01/16 12:17:24;;;;;;;2.47;0.60;;;;;;;4.07;74.30;94443.06;4957313;28;20051;-63
2023/01/16 12:19:56;;;;;;;0.90;0.55;;;;;;;4.22;73.36;94447.47;4955100;28;20137;-63
2023/01/16 12:22:27;;;;;;;3.35;1.80;;;;;;;4.31;73.48;94429.69;4957695;28;20489;-63
2023/01/16 12:25:23;;;;;;;1.27;0.40;;;;;;;4.28;73.27;94425.72;4953484;28;20154;-62
2023/01/16 12:28:14;;;;;;;4.30;1.60;;;;;;;4.12;74.08;94416.25;4961981;28;20133;-63
2023/01/16 12:31:00;;;;;;;0.60;0.40;;;;;;;4.19;74.37;94418.59;4958597;28;20042;-62
2023/01/16 12:33:35;;;;;;;1.08;0.40;;;;;;;4.26;74.54;94406.47;4956821;28;20054;-63
2023/01/16 12:36:10;;;;;;;5.22;2.53;;;;;;;4.27;74.94;94413.41;4962503;28;20266;-63
2023/01/16 12:39:12;;;;;;;3.40;1.70;;;;;;;4.13;74.64;94391.09;4955258;28;20103;-63
2023/01/16 12:45:11;;;;;;;3.03;1.10;;;;;;;4.14;76.26;94379.28;4950621;28;20179;-63
2023/01/16 12:48:10;;;;;;;1.55;0.80;;;;;;;4.22;76.41;94370.63;4953432;28;20043;-63
2023/01/16 12:50:53;;;;;;;0.70;0.30;;;;;;;4.47;75.32;94374.09;4955372;28;20320;-63
2023/01/16 12:53:41;;;;;;;1.35;0.60;;;;;;;4.57;75.20;94361.63;4956434;28;20113;-63
2023/01/16 12:56:22;;;;;;;1.60;0.70;;;;;;;4.55;74.76;94360.06;4953642;28;20055;-63
2023/01/16 12:58:54;;;;;;;0.88;0.60;;;;;;;4.36;76.02;94361.88;4955070;28;20109;-63
2023/01/16 13:01:28;;;;;;;1.98;1.10;;;;;;;4.34;76.21;94361.38;4953968;28;20074;-63